Time;durP1;ratioP1;P1;durP2;ratioP2;P2;SDS_P1;SDS_P2;PMS_P1;PMS_P2;Temp;Humidity;BMP_temperature;BMP_pressure;BME280_temperature;BME280_humidity;BME280_pressure;Samples;Min_cycle;Max_cycle;Signal;HPM_P1;HPM_P2
2022/11/23 00:00:35;;;;;;;15.55;5.93;;;8.40;99.90;;;;;;5033712;28;20029;-74
2022/11/23 00:03:01;;;;;;;15.45;5.85;;;8.40;99.90;;;;;;5034083;28;20025;-74
2022/11/23 00:05:28;;;;;;;12.52;6.15;;;8.40;99.90;;;;;;5033910;28;20484;-74
2022/11/23 00:07:54;;;;;;;14.35;7.03;;;8.40;99.90;;;;;;5034112;28;20025;-74
2022/11/23 00:10:20;;;;;;;15.35;6.10;;;8.40;99.90;;;;;;5032827;28;20024;-74
2022/11/23 00:12:45;;;;;;;13.98;5.80;;;8.40;99.90;;;;;;5032769;28;20025;-74
2022/11/23 00:15:13;;;;;;;15.52;6.30;;;8.40;99.90;;;;;;5033582;28;20052;-74
2022/11/23 00:17:39;;;;;;;16.25;7.38;;;8.40;99.90;;;;;;5033993;28;20476;-74
2022/11/23 00:20:06;;;;;;;18.90;6.30;;;8.50;99.90;;;;;;5064538;22;20090;-75
2022/11/23 00:22:32;;;;;;;18.50;7.15;;;8.50;99.90;;;;;;5072509;28;20492;-75
2022/11/23 00:24:57;;;;;;;14.63;7.55;;;8.40;99.90;;;;;;5066075;28;20052;-75
2022/11/23 00:27:23;;;;;;;19.65;7.20;;;8.40;99.90;;;;;;5052425;28;20498;-75
2022/11/23 00:29:48;;;;;;;15.10;7.28;;;8.50;99.90;;;;;;5053631;28;20361;-75
2022/11/23 00:32:14;;;;;;;18.27;9.25;;;8.50;99.90;;;;;;5052384;28;20028;-75
2022/11/23 00:34:40;;;;;;;24.48;8.77;;;8.50;99.90;;;;;;5036789;28;20060;-75
2022/11/23 00:37:05;;;;;;;21.45;9.00;;;8.40;99.90;;;;;;5033608;28;20606;-75
2022/11/23 00:39:31;;;;;;;19.63;7.72;;;8.50;99.90;;;;;;5034063;28;20032;-75
2022/11/23 00:41:56;;;;;;;19.02;8.35;;;8.50;99.90;;;;;;5033739;28;20040;-74
2022/11/23 00:44:22;;;;;;;18.08;7.50;;;8.50;99.90;;;;;;5045153;28;20036;-76
2022/11/23 00:46:47;;;;;;;21.15;8.32;;;8.50;99.90;;;;;;5047083;28;20083;-75
2022/11/23 00:49:13;;;;;;;20.73;7.75;;;8.40;99.90;;;;;;5053465;28;20017;-75
2022/11/23 00:51:39;;;;;;;21.25;7.78;;;8.40;99.90;;;;;;5053538;28;20025;-75
2022/11/23 00:54:05;;;;;;;16.70;7.00;;;8.40;99.90;;;;;;5048391;28;20373;-74
2022/11/23 00:56:32;;;;;;;17.63;7.80;;;8.50;99.90;;;;;;5051875;28;20017;-74
2022/11/23 00:58:59;;;;;;;21.02;8.52;;;8.40;99.90;;;;;;5053188;28;20369;-74
2022/11/23 01:01:29;;;;;;;20.33;7.53;;;8.40;99.90;;;;;;5051841;28;20067;-74
2022/11/23 01:03:57;;;;;;;22.63;8.25;;;8.50;99.90;;;;;;5045065;28;20075;-75
2022/11/23 01:06:30;;;;;;;17.50;7.57;;;8.40;99.90;;;;;;5033742;28;20548;-75
2022/11/23 01:08:59;;;;;;;24.92;9.35;;;8.50;99.90;;;;;;5032189;28;20029;-75
2022/11/23 01:11:27;;;;;;;19.17;8.23;;;8.50;99.90;;;;;;5032011;28;20366;-75
2022/11/23 01:13:53;;;;;;;26.10;8.27;;;8.50;99.90;;;;;;5040422;28;20275;-75
2022/11/23 01:16:22;;;;;;;25.80;8.98;;;8.50;99.90;;;;;;5052526;28;20271;-75
2022/11/23 01:18:50;;;;;;;21.25;8.07;;;8.40;99.90;;;;;;5052966;28;20509;-75
2022/11/23 01:21:18;;;;;;;18.42;7.55;;;8.50;99.90;;;;;;5052961;28;20168;-75
2022/11/23 01:23:43;;;;;;;22.98;7.03;;;8.40;99.90;;;;;;5046716;28;20477;-75
2022/11/23 01:26:10;;;;;;;19.88;7.07;;;8.40;99.90;;;;;;5033040;28;20018;-75
2022/11/23 01:28:37;;;;;;;20.88;7.20;;;8.40;99.90;;;;;;5033026;28;20018;-75
2022/11/23 01:31:10;;;;;;;17.20;7.57;;;8.40;99.90;;;;;;5031804;28;20025;-75
2022/11/23 01:33:36;;;;;;;17.08;7.53;;;8.50;99.90;;;;;;5036434;28;20395;-74
2022/11/23 01:36:13;;;;;;;14.07;6.75;;;8.40;99.90;;;;;;5052610;28;20056;-75
2022/11/23 01:38:40;;;;;;;15.88;7.88;;;8.40;99.90;;;;;;5053426;28;20075;-75
2022/11/23 01:41:07;;;;;;;15.93;6.68;;;8.40;99.90;;;;;;5051480;28;20121;-75
2022/11/23 01:43:33;;;;;;;20.08;7.10;;;8.40;99.90;;;;;;5048600;28;20494;-74
2022/11/23 01:46:00;;;;;;;20.08;6.47;;;8.40;99.90;;;;;;5047869;28;20061;-75
2022/11/23 01:48:32;;;;;;;18.42;6.60;;;8.40;99.90;;;;;;5053429;28;20022;-74
2022/11/23 01:51:05;;;;;;;18.90;5.97;;;8.40;99.90;;;;;;5051584;28;20025;-74
2022/11/23 01:53:31;;;;;;;14.52;6.03;;;8.40;99.90;;;;;;5049360;28;20025;-74
2022/11/23 01:56:01;;;;;;;17.70;7.00;;;8.40;99.90;;;;;;5034138;28;20021;-75
2022/11/23 01:58:30;;;;;;;16.85;7.25;;;8.40;99.90;;;;;;5036387;28;20037;-75
2022/11/23 02:00:56;;;;;;;15.38;5.85;;;8.30;99.90;;;;;;5035109;28;20060;-75
2022/11/23 02:03:23;;;;;;;15.50;5.88;;;8.30;99.90;;;;;;5041682;28;20032;-75
2022/11/23 02:05:58;;;;;;;18.80;5.93;;;8.30;99.90;;;;;;5051093;28;20472;-74
2022/11/23 02:08:24;;;;;;;10.93;5.30;;;8.30;99.90;;;;;;5056270;28;20023;-75
2022/11/23 02:16:29;;;;;;;12.35;5.55;;;8.30;99.90;;;;;;5055731;28;20037;-76
2022/11/23 02:18:55;;;;;;;13.10;5.28;;;8.20;99.90;;;;;;5056121;28;20036;-76
2022/11/23 02:21:21;;;;;;;12.57;5.28;;;8.20;99.90;;;;;;5037028;28;20029;-76
2022/11/23 02:23:54;;;;;;;14.27;4.82;;;8.20;99.90;;;;;;5038220;28;20032;-76
2022/11/23 02:26:28;;;;;;;13.20;4.85;;;8.30;99.90;;;;;;5056115;28;20025;-74
2022/11/23 02:28:58;;;;;;;8.77;4.30;;;8.30;99.90;;;;;;5055996;28;20483;-74
2022/11/23 02:31:24;;;;;;;11.88;4.35;;;8.30;99.90;;;;;;5037880;28;20025;-76
2022/11/23 02:33:49;;;;;;;11.93;4.03;;;8.30;99.90;;;;;;5037538;28;20025;-76
2022/11/23 02:36:36;;;;;;;14.48;4.35;;;8.20;99.90;;;;;;5038058;28;20037;-76
2022/11/23 02:39:11;;;;;;;17.25;5.18;;;8.20;99.90;;;;;;5055732;28;20067;-76
2022/11/23 02:41:42;;;;;;;12.25;3.95;;;8.20;99.90;;;;;;5038022;28;20033;-76
2022/11/23 02:44:28;;;;;;;15.68;5.18;;;8.20;99.90;;;;;;5056725;28;20025;-74
2022/11/23 02:46:54;;;;;;;17.58;6.53;;;8.20;99.90;;;;;;5038127;28;20024;-74
2022/11/23 02:49:20;;;;;;;18.33;6.03;;;8.20;99.90;;;;;;5055945;28;20531;-74
2022/11/23 02:51:45;;;;;;;23.65;5.95;;;8.20;99.90;;;;;;5038084;28;20116;-74
2022/11/23 02:54:11;;;;;;;11.77;4.32;;;8.20;99.90;;;;;;5037820;28;20063;-74
2022/11/23 02:56:36;;;;;;;18.33;4.97;;;8.20;99.90;;;;;;5056128;28;20033;-74
2022/11/23 02:59:02;;;;;;;15.27;4.75;;;8.20;99.90;;;;;;5037428;28;20040;-74
2022/11/23 03:01:28;;;;;;;13.98;5.35;;;8.20;99.90;;;;;;5037536;28;20060;-74
2022/11/23 03:03:53;;;;;;;13.52;5.18;;;8.20;99.90;;;;;;5037544;28;20117;-74
2022/11/23 03:06:19;;;;;;;14.23;5.53;;;8.10;99.90;;;;;;5055180;28;20476;-74
2022/11/23 03:08:44;;;;;;;14.75;5.22;;;8.10;99.90;;;;;;5054053;28;20017;-74
2022/11/23 03:11:10;;;;;;;16.30;5.03;;;8.10;99.90;;;;;;5037312;28;20029;-74
2022/11/23 03:13:35;;;;;;;16.35;4.60;;;8.10;99.90;;;;;;5037239;28;20021;-74
2022/11/23 03:16:01;;;;;;;14.02;4.70;;;8.10;99.90;;;;;;5055042;28;20037;-74
2022/11/23 03:18:26;;;;;;;12.18;4.97;;;8.10;99.90;;;;;;5054593;28;20451;-74
2022/11/23 03:20:52;;;;;;;12.90;4.65;;;8.10;99.90;;;;;;5053442;28;20059;-74
2022/11/23 03:23:18;;;;;;;11.27;4.60;;;8.10;99.90;;;;;;5037412;28;20104;-74
2022/11/23 03:25:43;;;;;;;12.25;4.35;;;8.20;99.90;;;;;;5054853;28;20036;-74
2022/11/23 03:28:09;;;;;;;9.85;4.85;;;8.20;99.90;;;;;;5037052;28;20437;-74
2022/11/23 03:30:34;;;;;;;10.77;3.45;;;8.20;99.90;;;;;;5037324;28;20044;-74
2022/11/23 03:33:00;;;;;;;10.90;4.68;;;8.20;99.90;;;;;;5054373;28;20079;-75
2022/11/23 03:35:25;;;;;;;9.73;3.92;;;8.10;99.90;;;;;;5054858;28;20029;-75
2022/11/23 03:37:51;;;;;;;12.13;3.95;;;8.10;99.90;;;;;;5054879;28;20118;-75
2022/11/23 03:40:16;;;;;;;9.48;3.95;;;8.10;99.90;;;;;;5054645;28;20021;-75
2022/11/23 03:42:42;;;;;;;9.10;4.43;;;8.10;99.90;;;;;;5054599;28;20036;-75
2022/11/23 03:45:08;;;;;;;12.63;3.45;;;8.10;99.90;;;;;;5036350;28;20017;-75
2022/11/23 03:47:34;;;;;;;9.57;3.92;;;8.10;99.90;;;;;;5055103;28;20059;-75
2022/11/23 03:50:00;;;;;;;9.82;3.45;;;8.10;99.90;;;;;;5037189;28;20147;-75
2022/11/23 03:52:26;;;;;;;12.50;4.50;;;8.10;99.90;;;;;;5036956;28;20499;-75
2022/11/23 03:54:51;;;;;;;10.55;3.90;;;8.10;99.90;;;;;;5054224;28;20391;-75
2022/11/23 03:57:17;;;;;;;15.43;4.45;;;8.10;99.90;;;;;;5036711;28;20025;-75
2022/11/23 03:59:42;;;;;;;10.90;3.45;;;8.10;99.90;;;;;;5054952;28;20029;-75
2022/11/23 04:02:08;;;;;;;9.32;4.03;;;8.10;99.90;;;;;;5054443;28;20086;-75
2022/11/23 04:04:34;;;;;;;11.30;4.18;;;8.10;99.90;;;;;;5036249;28;20029;-75
2022/11/23 04:07:00;;;;;;;10.63;4.13;;;8.10;99.90;;;;;;5054701;28;20025;-75
2022/11/23 04:09:25;;;;;;;9.95;4.72;;;8.20;99.90;;;;;;5054717;28;20021;-75
2022/11/23 04:11:51;;;;;;;9.73;3.63;;;8.20;99.90;;;;;;5054324;28;20021;-75
2022/11/23 04:14:17;;;;;;;12.77;4.35;;;8.20;99.90;;;;;;5035839;28;20043;-75
2022/11/23 04:16:42;;;;;;;13.52;4.13;;;8.20;99.90;;;;;;5036245;28;20061;-75
2022/11/23 04:19:08;;;;;;;9.27;3.95;;;8.20;99.90;;;;;;5053588;28;20028;-75
2022/11/23 04:21:33;;;;;;;12.25;4.30;;;8.20;99.90;;;;;;5035904;28;20035;-75
2022/11/23 04:23:59;;;;;;;7.45;3.33;;;8.20;99.90;;;;;;5054033;28;20040;-75
2022/11/23 04:26:25;;;;;;;9.05;4.72;;;8.20;99.90;;;;;;5054053;28;20029;-75
2022/11/23 04:28:50;;;;;;;6.82;2.90;;;8.20;99.90;;;;;;5036205;28;20108;-75
2022/11/23 04:31:16;;;;;;;9.15;3.50;;;8.20;99.90;;;;;;5054039;28;20029;-75
2022/11/23 04:33:41;;;;;;;8.60;2.97;;;8.20;99.90;;;;;;5053993;28;20053;-75
2022/11/23 04:36:08;;;;;;;7.30;2.83;;;8.20;99.90;;;;;;5053298;28;20520;-75
2022/11/23 04:38:33;;;;;;;10.43;2.50;;;8.20;99.90;;;;;;5036008;28;20025;-75
2022/11/23 04:40:59;;;;;;;11.85;3.17;;;8.20;99.90;;;;;;5035906;28;20071;-75
2022/11/23 04:43:25;;;;;;;8.48;2.90;;;8.30;99.90;;;;;;5053650;28;20032;-75
2022/11/23 04:45:50;;;;;;;5.65;2.85;;;8.30;99.90;;;;;;5035321;28;20027;-75
2022/11/23 04:48:16;;;;;;;8.40;2.25;;;8.20;99.90;;;;;;5035693;28;20047;-75
2022/11/23 04:50:41;;;;;;;5.53;2.70;;;8.20;99.90;;;;;;5035862;28;20503;-75
2022/11/23 04:53:07;;;;;;;7.85;3.00;;;8.20;99.90;;;;;;5053215;28;20101;-75
2022/11/23 04:55:33;;;;;;;10.93;2.30;;;8.20;99.90;;;;;;5053573;28;20025;-75
2022/11/23 04:57:59;;;;;;;11.93;2.65;;;8.20;99.90;;;;;;5053418;28;20028;-75
2022/11/23 05:00:25;;;;;;;10.20;2.60;;;8.10;99.90;;;;;;5053556;28;20447;-75
2022/11/23 05:02:50;;;;;;;9.48;2.78;;;8.10;99.90;;;;;;5036025;28;20060;-75
2022/11/23 05:05:16;;;;;;;7.38;2.38;;;8.10;99.90;;;;;;5052869;28;20030;-75
2022/11/23 05:07:42;;;;;;;10.88;2.67;;;8.00;99.90;;;;;;5053551;28;20074;-75
2022/11/23 05:10:08;;;;;;;6.60;2.25;;;8.00;99.90;;;;;;5053732;28;20019;-75
2022/11/23 05:12:35;;;;;;;11.95;2.85;;;8.00;99.90;;;;;;5035707;28;20029;-75
2022/11/23 05:15:01;;;;;;;9.18;2.80;;;8.00;99.90;;;;;;5052469;28;20029;-75
2022/11/23 05:17:26;;;;;;;11.50;3.13;;;7.90;99.90;;;;;;5035928;28;20028;-75
2022/11/23 05:19:52;;;;;;;15.65;2.75;;;8.00;99.90;;;;;;5035524;28;20067;-75
2022/11/23 05:22:18;;;;;;;9.23;2.47;;;8.00;99.90;;;;;;5035786;28;20544;-75
2022/11/23 05:24:43;;;;;;;5.00;2.20;;;8.00;99.90;;;;;;5035046;28;20017;-75
2022/11/23 05:27:09;;;;;;;11.70;2.90;;;8.00;99.90;;;;;;5035520;28;20538;-75
2022/11/23 05:29:35;;;;;;;14.30;2.70;;;8.00;99.90;;;;;;5036127;28;20032;-75
2022/11/23 05:32:01;;;;;;;13.50;3.38;;;8.10;99.90;;;;;;5056607;28;20021;-75
2022/11/23 05:34:26;;;;;;;11.43;2.70;;;8.10;99.90;;;;;;5057068;28;20151;-75
2022/11/23 05:36:52;;;;;;;8.27;3.08;;;8.10;99.90;;;;;;5039349;28;20021;-75
2022/11/23 05:39:18;;;;;;;12.05;2.45;;;8.20;99.90;;;;;;5039021;28;20033;-74
2022/11/23 05:41:43;;;;;;;9.95;1.83;;;8.20;99.90;;;;;;5039552;28;20391;-75
2022/11/23 05:44:09;;;;;;;7.80;2.38;;;8.20;99.90;;;;;;5038737;28;20498;-75
2022/11/23 05:46:34;;;;;;;11.52;2.03;;;8.30;99.90;;;;;;5057172;28;20104;-75
2022/11/23 05:49:00;;;;;;;9.32;2.47;;;8.30;99.90;;;;;;5057365;28;20097;-75
2022/11/23 05:51:25;;;;;;;10.50;2.55;;;8.40;99.90;;;;;;5039195;28;20021;-75
2022/11/23 05:53:51;;;;;;;10.93;2.97;;;8.40;99.90;;;;;;5056950;28;20040;-75
2022/11/23 05:56:16;;;;;;;6.55;2.10;;;8.40;99.90;;;;;;5056741;28;20024;-75
2022/11/23 05:58:42;;;;;;;13.38;2.45;;;8.30;99.90;;;;;;5038912;28;20027;-75
2022/11/23 06:01:07;;;;;;;8.82;2.33;;;8.40;99.90;;;;;;5056562;28;20045;-75
2022/11/23 06:03:33;;;;;;;6.45;2.03;;;8.40;99.90;;;;;;5056889;28;20029;-75
2022/11/23 06:05:58;;;;;;;9.10;2.22;;;9.00;99.90;;;;;;5056721;28;20486;-75
2022/11/23 06:08:24;;;;;;;9.43;2.13;;;8.40;99.90;;;;;;5039725;28;20047;-74
2022/11/23 06:10:49;;;;;;;11.95;2.53;;;8.40;99.90;;;;;;5056959;28;20028;-75
2022/11/23 06:13:15;;;;;;;10.35;1.92;;;8.30;99.90;;;;;;5038558;28;20055;-75
2022/11/23 06:15:41;;;;;;;9.43;2.90;;;8.30;99.90;;;;;;5055968;28;20032;-75
2022/11/23 06:18:06;;;;;;;10.23;2.78;;;8.40;99.90;;;;;;5056298;28;20100;-75
2022/11/23 06:20:32;;;;;;;11.20;4.03;;;8.40;99.90;;;;;;5056482;28;20075;-75
2022/11/23 06:23:00;;;;;;;9.80;3.55;;;8.40;99.90;;;;;;5056397;28;20387;-75
2022/11/23 06:25:26;;;;;;;8.18;2.30;;;8.40;99.90;;;;;;5038456;28;20499;-75
2022/11/23 06:27:56;;;;;;;10.10;2.75;;;8.30;99.90;;;;;;5056613;28;20135;-74
2022/11/23 06:30:23;;;;;;;7.70;1.88;;;8.30;99.90;;;;;;5038252;28;20035;-75
2022/11/23 06:32:48;;;;;;;11.55;3.30;;;8.40;99.90;;;;;;5056418;28;20098;-75
2022/11/23 06:35:15;;;;;;;11.00;2.92;;;8.20;99.90;;;;;;5047607;28;20029;-74
2022/11/23 06:37:41;;;;;;;5.88;1.83;;;8.30;99.90;;;;;;5056263;28;20045;-74
2022/11/23 06:40:07;;;;;;;7.32;2.05;;;8.20;99.90;;;;;;5038117;28;20049;-74
2022/11/23 06:42:33;;;;;;;6.80;2.00;;;8.20;99.90;;;;;;5037975;28;20021;-75
2022/11/23 06:44:58;;;;;;;10.48;2.47;;;8.20;99.90;;;;;;5055471;28;20072;-75
2022/11/23 06:47:24;;;;;;;10.38;1.33;;;8.10;99.90;;;;;;5038013;28;20029;-75
2022/11/23 06:49:49;;;;;;;8.35;1.90;;;8.10;99.90;;;;;;5055523;28;20021;-75
2022/11/23 06:52:15;;;;;;;14.05;2.50;;;8.00;99.90;;;;;;5055534;28;20029;-75
2022/11/23 06:54:40;;;;;;;9.70;1.40;;;8.00;99.90;;;;;;5055707;28;20403;-75
2022/11/23 06:57:09;;;;;;;5.75;0.73;;;7.90;99.90;;;;;;5055520;28;20503;-75
2022/11/23 06:59:35;;;;;;;7.00;0.52;;;7.80;99.90;;;;;;5055628;28;20056;-75
2022/11/23 07:02:00;;;;;;;12.48;1.42;;;7.80;99.90;;;;;;5055426;28;20056;-75
2022/11/23 07:04:26;;;;;;;9.07;0.93;;;7.70;99.90;;;;;;5037983;28;20178;-75
2022/11/23 07:06:51;;;;;;;10.05;1.20;;;7.70;99.90;;;;;;5037906;28;20112;-75
2022/11/23 07:09:17;;;;;;;9.00;0.47;;;7.60;99.90;;;;;;5037708;28;20028;-75
2022/11/23 07:11:42;;;;;;;10.55;0.75;;;7.60;99.90;;;;;;5037637;28;20035;-75
2022/11/23 07:14:08;;;;;;;5.28;1.20;;;7.40;99.90;;;;;;5037335;28;20029;-74
2022/11/23 07:16:34;;;;;;;5.97;0.88;;;7.40;99.90;;;;;;5055280;28;20025;-75
2022/11/23 07:18:59;;;;;;;3.65;0.57;;;7.40;99.90;;;;;;5037842;28;20021;-75
2022/11/23 07:21:25;;;;;;;10.27;0.57;;;7.30;99.90;;;;;;5037573;28;20032;-75
2022/11/23 07:23:50;;;;;;;9.27;0.70;;;7.30;99.90;;;;;;5037903;28;20055;-75
2022/11/23 07:26:16;;;;;;;11.82;0.68;;;7.30;99.90;;;;;;5037503;28;20109;-75
2022/11/23 07:28:42;;;;;;;10.93;1.20;;;7.20;99.90;;;;;;5055459;28;20415;-75
2022/11/23 07:31:07;;;;;;;8.07;0.35;;;7.20;99.90;;;;;;5055296;28;20036;-75
2022/11/23 07:33:33;;;;;;;8.07;0.40;;;7.20;99.90;;;;;;5055105;28;20033;-75
2022/11/23 07:36:02;;;;;;;6.00;0.52;;;7.20;99.90;;;;;;5055009;28;20396;-75
2022/11/23 07:38:29;;;;;;;7.30;0.75;;;7.20;99.90;;;;;;5055005;28;20070;-75
2022/11/23 07:40:54;;;;;;;11.38;0.82;;;7.30;99.90;;;;;;5055026;28;20106;-75
2022/11/23 07:43:20;;;;;;;9.13;0.57;;;7.40;99.90;;;;;;5055133;28;20491;-75
2022/11/23 07:45:45;;;;;;;11.50;0.60;;;7.40;99.90;;;;;;5054483;28;20025;-75
2022/11/23 07:48:11;;;;;;;11.60;1.10;;;7.40;99.90;;;;;;5055416;28;20040;-75
2022/11/23 07:50:38;;;;;;;7.85;0.30;;;7.40;99.90;;;;;;5036895;28;20021;-75
2022/11/23 07:53:05;;;;;;;6.78;0.45;;;7.40;99.90;;;;;;5054375;28;20025;-75
2022/11/23 07:55:31;;;;;;;8.55;0.57;;;7.50;99.90;;;;;;5036960;28;20025;-75
2022/11/23 07:57:58;;;;;;;12.30;0.40;;;7.50;99.90;;;;;;5054663;28;20028;-75
2022/11/23 08:00:26;;;;;;;8.93;0.38;;;7.60;99.90;;;;;;5036568;28;20032;-75
2022/11/23 08:02:51;;;;;;;6.10;0.73;;;7.60;99.90;;;;;;5054971;28;20024;-75
2022/11/23 08:05:17;;;;;;;13.32;1.23;;;7.60;99.90;;;;;;5037214;28;20021;-75
2022/11/23 08:07:46;;;;;;;5.18;0.95;;;7.60;99.90;;;;;;5036832;28;20120;-75
2022/11/23 08:10:12;;;;;;;6.93;0.65;;;7.70;99.90;;;;;;5036694;28;20025;-75
2022/11/23 08:12:38;;;;;;;6.38;0.47;;;7.70;99.90;;;;;;5054538;28;20168;-75
2022/11/23 08:15:04;;;;;;;10.00;1.23;;;7.80;99.90;;;;;;5036108;28;20045;-75
2022/11/23 08:17:30;;;;;;;14.52;0.50;;;7.90;99.90;;;;;;5036609;28;20035;-75
2022/11/23 08:19:55;;;;;;;9.27;0.82;;;7.90;99.90;;;;;;5036256;28;20017;-75
2022/11/23 08:22:23;;;;;;;8.90;0.28;;;8.00;99.90;;;;;;5054497;28;20434;-74
2022/11/23 08:24:49;;;;;;;5.17;0.30;;;8.00;99.90;;;;;;5054426;28;20127;-75
2022/11/23 08:27:15;;;;;;;6.95;0.40;;;8.00;99.90;;;;;;5054440;28;20281;-75
2022/11/23 08:29:41;;;;;;;10.05;0.80;;;8.00;99.90;;;;;;5036421;28;20104;-75
2022/11/23 08:32:06;;;;;;;5.25;0.10;;;8.00;99.90;;;;;;5036323;28;20063;-75
2022/11/23 08:34:32;;;;;;;6.05;0.40;;;8.00;99.90;;;;;;5054366;28;20445;-75
2022/11/23 08:36:57;;;;;;;8.85;0.50;;;8.00;99.90;;;;;;5054223;28;20025;-75
2022/11/23 08:39:23;;;;;;;8.18;1.15;;;8.00;99.90;;;;;;5054412;28;20032;-75
2022/11/23 08:41:49;;;;;;;16.58;2.33;;;8.00;99.90;;;;;;5036466;28;20078;-75
2022/11/23 08:44:14;;;;;;;8.00;0.60;;;8.00;99.90;;;;;;5054521;28;20025;-75
2022/11/23 08:46:40;;;;;;;6.60;0.45;;;8.00;99.90;;;;;;5036209;28;20013;-75
2022/11/23 08:49:06;;;;;;;9.93;0.82;;;8.10;99.90;;;;;;5036457;28;20056;-75
2022/11/23 08:51:32;;;;;;;13.90;0.52;;;8.10;99.90;;;;;;5053912;28;20556;-75
2022/11/23 08:53:58;;;;;;;11.98;0.88;;;8.10;99.90;;;;;;5053940;28;20481;-75
2022/11/23 08:56:23;;;;;;;10.85;0.57;;;8.20;99.90;;;;;;5053885;28;20079;-74
2022/11/23 08:58:49;;;;;;;10.55;0.98;;;8.20;99.90;;;;;;5054156;28;20025;-75
2022/11/23 09:01:16;;;;;;;7.63;0.88;;;8.20;99.90;;;;;;5035949;28;20488;-74
2022/11/23 09:03:42;;;;;;;13.70;1.45;;;8.20;99.90;;;;;;5036067;28;20029;-75
2022/11/23 09:06:08;;;;;;;6.57;0.10;;;8.30;99.90;;;;;;5056467;28;20025;-75
2022/11/23 09:08:34;;;;;;;11.02;1.27;;;8.30;99.90;;;;;;5040095;28;20373;-75
2022/11/23 09:11:06;;;;;;;8.60;0.20;;;8.30;99.90;;;;;;5058043;28;20021;-75
2022/11/23 09:13:34;;;;;;;5.80;0.63;;;8.30;99.90;;;;;;5040403;28;20021;-74
2022/11/23 09:16:01;;;;;;;8.10;0.60;;;8.40;99.90;;;;;;5058777;28;20032;-75
2022/11/23 09:18:32;;;;;;;14.07;1.00;;;8.50;99.90;;;;;;5058085;28;20040;-75
2022/11/23 09:20:58;;;;;;;13.68;1.17;;;8.60;99.90;;;;;;5040065;28;20028;-75
2022/11/23 09:23:25;;;;;;;4.40;0.10;;;8.60;99.90;;;;;;5040440;28;20394;-75
2022/11/23 09:25:51;;;;;;;9.15;0.60;;;8.60;99.90;;;;;;5068680;28;20051;-75
2022/11/23 09:28:18;;;;;;;8.93;0.88;;;8.80;99.90;;;;;;5060070;28;20028;-75
2022/11/23 09:30:45;;;;;;;16.73;0.55;;;8.90;99.90;;;;;;5055250;28;20552;-75
2022/11/23 09:33:10;;;;;;;10.80;1.23;;;8.90;99.90;;;;;;5077632;28;20027;-74
2022/11/23 09:35:36;;;;;;;7.82;1.20;;;9.00;99.90;;;;;;5060743;28;20036;-74
2022/11/23 09:38:02;;;;;;;7.35;0.65;;;9.00;99.90;;;;;;5039784;28;20476;-74
2022/11/23 09:40:36;;;;;;;4.95;0.32;;;9.00;99.90;;;;;;5039550;28;20079;-74
2022/11/23 09:43:23;;;;;;;12.20;0.63;;;9.10;99.90;;;;;;5039726;28;20021;-74
2022/11/23 09:45:54;;;;;;;10.40;1.08;;;9.00;99.90;;;;;;5051604;28;20081;-74
2022/11/23 09:48:53;;;;;;;10.23;1.15;;;9.00;99.90;;;;;;5076846;28;20017;-74
2022/11/23 09:51:21;;;;;;;9.02;0.45;;;9.10;99.90;;;;;;5076951;28;20082;-74
2022/11/23 09:53:58;;;;;;;8.95;0.90;;;9.10;99.90;;;;;;5056537;28;20021;-74
2022/11/23 09:56:31;;;;;;;7.03;0.13;;;9.10;99.90;;;;;;5036959;28;20068;-74
2022/11/23 09:59:00;;;;;;;15.63;1.17;;;9.10;99.90;;;;;;5036816;28;20392;-74
2022/11/23 10:01:30;;;;;;;5.15;0.43;;;9.10;99.90;;;;;;5057838;28;20031;-74
2022/11/23 10:03:56;;;;;;;7.95;0.40;;;9.20;99.90;;;;;;5054993;28;20016;-74
2022/11/23 10:06:24;;;;;;;3.47;0.63;;;9.20;99.90;;;;;;5058583;28;20049;-74
2022/11/23 10:09:19;;;;;;;9.00;0.35;;;9.20;99.90;;;;;;5057292;28;20028;-74
2022/11/23 10:11:58;;;;;;;13.75;0.47;;;9.20;99.90;;;;;;5043700;28;20060;-74
2022/11/23 10:14:52;;;;;;;6.93;0.45;;;9.30;99.90;;;;;;5057315;28;20116;-74
2022/11/23 10:17:37;;;;;;;7.40;0.43;;;9.30;99.90;;;;;;5055794;28;20068;-74
2022/11/23 10:20:12;;;;;;;5.28;0.55;;;9.30;99.90;;;;;;5057058;28;20024;-74
2022/11/23 10:22:57;;;;;;;6.20;0.47;;;9.30;99.90;;;;;;5038353;28;20033;-74
2022/11/23 10:25:24;;;;;;;6.88;0.40;;;9.40;99.90;;;;;;5056736;28;20024;-74
2022/11/23 10:27:57;;;;;;;5.55;0.40;;;9.30;99.90;;;;;;5056377;28;20384;-74
2022/11/23 10:30:22;;;;;;;7.50;0.10;;;9.40;99.90;;;;;;5038316;28;20028;-74
2022/11/23 10:32:52;;;;;;;6.03;0.40;;;9.50;99.90;;;;;;5057057;28;20383;-74
2022/11/23 10:35:29;;;;;;;4.85;0.10;;;9.50;99.90;;;;;;5038584;28;20025;-74
2022/11/23 10:38:16;;;;;;;5.80;0.70;;;9.50;99.90;;;;;;5055794;28;20032;-74
2022/11/23 10:41:09;;;;;;;6.65;0.75;;;9.50;99.90;;;;;;5056395;28;20507;-74
2022/11/23 10:44:03;;;;;;;7.15;0.50;;;9.60;99.90;;;;;;5038018;28;20428;-74
2022/11/23 10:46:36;;;;;;;10.05;1.15;;;9.60;99.90;;;;;;5057298;28;20028;-74
2022/11/23 10:49:15;;;;;;;9.38;1.48;;;9.60;99.90;;;;;;5076227;28;20028;-74
2022/11/23 10:51:49;;;;;;;8.02;0.30;;;9.60;99.90;;;;;;5076020;28;20033;-73
2022/11/23 10:54:44;;;;;;;5.35;0.45;;;9.60;99.90;;;;;;5069140;28;20025;-74
2022/11/23 10:57:32;;;;;;;6.70;0.30;;;9.50;99.90;;;;;;5038190;28;20033;-74
2022/11/23 11:00:18;;;;;;;6.78;0.00;;;9.50;99.90;;;;;;5038433;28;20033;-73
2022/11/23 11:02:53;;;;;;;4.00;0.10;;;9.50;99.90;;;;;;5055833;28;20029;-74
2022/11/23 11:05:35;;;;;;;10.02;0.20;;;9.60;99.90;;;;;;5055265;28;20032;-74
2022/11/23 11:08:22;;;;;;;6.55;0.80;;;9.60;99.90;;;;;;5041699;28;20021;-74
2022/11/23 11:11:00;;;;;;;9.30;0.20;;;9.60;99.90;;;;;;5035142;28;20497;-73
2022/11/23 11:13:31;;;;;;;7.78;0.68;;;9.40;99.90;;;;;;5035638;28;20096;-73
2022/11/23 11:16:04;;;;;;;7.05;0.20;;;9.40;99.90;;;;;;5035496;28;20037;-75
2022/11/23 11:18:32;;;;;;;15.55;1.35;;;9.40;99.90;;;;;;5018069;28;20022;-73
2022/11/23 11:21:15;;;;;;;6.95;0.10;;;9.60;99.90;;;;;;5035654;28;20033;-74
2022/11/23 11:23:45;;;;;;;6.60;1.08;;;9.40;99.90;;;;;;5018060;28;20021;-74
2022/11/23 11:26:24;;;;;;;6.55;0.65;;;9.40;99.90;;;;;;5035562;28;20017;-74
2022/11/23 11:28:53;;;;;;;5.78;0.20;;;9.30;99.90;;;;;;5017405;28;20385;-75
2022/11/23 11:31:46;;;;;;;5.55;0.38;;;9.30;99.90;;;;;;5035702;28;20025;-75
2022/11/23 11:34:30;;;;;;;7.45;0.63;;;9.30;99.90;;;;;;5036000;28;20029;-75
2022/11/23 11:37:13;;;;;;;5.88;0.43;;;9.30;99.90;;;;;;5036218;28;20376;-76
2022/11/23 11:39:48;;;;;;;4.57;0.38;;;9.40;99.90;;;;;;5035616;28;20030;-74
2022/11/23 11:42:26;;;;;;;5.43;0.00;;;9.60;99.90;;;;;;5017937;28;20052;-75
2022/11/23 11:44:55;;;;;;;2.00;0.40;;;9.70;99.90;;;;;;5036145;28;20056;-75
2022/11/23 11:47:30;;;;;;;4.63;1.02;;;9.80;99.90;;;;;;5035428;28;20387;-75
2022/11/23 11:49:58;;;;;;;5.70;0.52;;;9.90;99.90;;;;;;5018065;28;20025;-74
2022/11/23 11:52:36;;;;;;;8.13;0.03;;;10.00;99.90;;;;;;5035091;28;20388;-75
2022/11/23 11:55:18;;;;;;;9.38;0.52;;;10.00;99.90;;;;;;5034920;28;20294;-74
2022/11/23 11:57:55;;;;;;;4.00;0.95;;;10.10;99.90;;;;;;5035006;28;20025;-76
2022/11/23 12:00:20;;;;;;;2.70;0.73;;;10.20;99.90;;;;;;5035037;28;20064;-75
2022/11/23 12:03:17;;;;;;;4.07;0.08;;;10.10;99.90;;;;;;5017693;28;20045;-75
2022/11/23 12:05:50;;;;;;;5.13;0.20;;;10.20;99.90;;;;;;5033748;28;20022;-77
2022/11/23 12:08:45;;;;;;;4.50;0.28;;;10.20;99.90;;;;;;5017637;28;20029;-76
2022/11/23 12:11:11;;;;;;;7.55;0.00;;;10.20;99.90;;;;;;5035170;28;20026;-77
2022/11/23 12:13:42;;;;;;;2.40;0.00;;;10.30;99.90;;;;;;5035266;28;20026;-76
2022/11/23 12:16:22;;;;;;;5.80;1.00;;;10.40;99.90;;;;;;5034761;28;20025;-77
2022/11/23 12:19:26;;;;;;;6.55;0.40;;;10.60;99.90;;;;;;5033987;28;20036;-76
2022/11/23 12:22:22;;;;;;;1.17;0.10;;;10.60;99.90;;;;;;5034523;28;20042;-76
2022/11/23 12:24:47;;;;;;;3.45;0.95;;;10.60;99.90;;;;;;5035450;28;20018;-76
2022/11/23 12:27:41;;;;;;;6.03;0.43;;;10.60;99.90;;;;;;5035201;28;20032;-75
2022/11/23 12:30:15;;;;;;;8.57;0.30;;;10.60;99.90;;;;;;5033371;28;20388;-75
2022/11/23 12:32:52;;;;;;;6.05;0.63;;;10.60;99.90;;;;;;5034146;28;20036;-75
2022/11/23 12:35:31;;;;;;;4.40;0.00;;;10.70;99.90;;;;;;5016746;28;20025;-75
2022/11/23 12:38:00;;;;;;;5.00;0.20;;;10.70;99.90;;;;;;5034250;28;20030;-76
2022/11/23 12:40:33;;;;;;;3.92;0.10;;;10.80;99.90;;;;;;5035819;28;20021;-75
2022/11/23 12:43:52;;;;;;;3.53;0.13;;;11.90;99.90;;;;;;5034227;28;20033;-76
2022/11/23 12:46:56;;;;;;;1.63;0.10;;;10.80;99.90;;;;;;4987925;28;20117;-74
2022/11/23 12:49:41;;;;;;;0.32;0.00;;;10.80;99.90;;;;;;5017892;28;20029;-74
2022/11/23 12:52:21;;;;;;;2.05;0.00;;;13.60;99.90;;;;;;5035063;28;20035;-74
2022/11/23 12:54:50;;;;;;;4.75;0.10;;;10.80;99.90;;;;;;5034595;28;20033;-74
2022/11/23 12:57:33;;;;;;;2.45;0.05;;;10.60;99.90;;;;;;5032603;28;20029;-74
2022/11/23 13:00:21;;;;;;;1.63;0.10;;;10.60;99.90;;;;;;5032859;28;20473;-75
2022/11/23 13:02:57;;;;;;;;;;;10.40;99.90;;;;;;5016647;28;20079;-74
2022/11/23 13:05:49;;;;;;;3.45;0.20;;;10.30;99.90;;;;;;5033624;28;19908;-75
2022/11/23 13:08:42;;;;;;;3.70;0.10;;;10.30;99.90;;;;;;5032522;28;20060;-75